sensor_id;sensor_type;location;lat;lon;timestamp;P1;durP1;ratioP1;P2;durP2;ratioP2
19057;SDS011;9662;53.612;9.914;2022-11-23T00:01:24;24.00;;;12.23;;
19057;SDS011;9662;53.612;9.914;2022-11-23T00:03:53;26.13;;;12.23;;
19057;SDS011;9662;53.612;9.914;2022-11-23T00:06:23;19.98;;;11.75;;
19057;SDS011;9662;53.612;9.914;2022-11-23T00:08:50;22.05;;;11.77;;
19057;SDS011;9662;53.612;9.914;2022-11-23T00:11:18;24.73;;;12.07;;
19057;SDS011;9662;53.612;9.914;2022-11-23T00:13:46;25.57;;;12.63;;
19057;SDS011;9662;53.612;9.914;2022-11-23T00:16:14;22.58;;;12.00;;
19057;SDS011;9662;53.612;9.914;2022-11-23T00:18:41;24.38;;;12.15;;
19057;SDS011;9662;53.612;9.914;2022-11-23T00:21:08;26.85;;;12.55;;
19057;SDS011;9662;53.612;9.914;2022-11-23T00:23:37;26.30;;;12.63;;
19057;SDS011;9662;53.612;9.914;2022-11-23T00:26:05;31.00;;;12.48;;
19057;SDS011;9662;53.612;9.914;2022-11-23T00:28:32;23.73;;;12.27;;
19057;SDS011;9662;53.612;9.914;2022-11-23T00:31:01;23.80;;;11.40;;
19057;SDS011;9662;53.612;9.914;2022-11-23T00:33:28;23.75;;;11.60;;
19057;SDS011;9662;53.612;9.914;2022-11-23T00:35:59;25.17;;;12.18;;
19057;SDS011;9662;53.612;9.914;2022-11-23T00:38:26;25.77;;;12.18;;
19057;SDS011;9662;53.612;9.914;2022-11-23T00:40:58;23.30;;;12.88;;
19057;SDS011;9662;53.612;9.914;2022-11-23T00:43:26;24.43;;;12.07;;
19057;SDS011;9662;53.612;9.914;2022-11-23T00:46:02;22.95;;;11.88;;
19057;SDS011;9662;53.612;9.914;2022-11-23T00:48:30;26.58;;;12.52;;
19057;SDS011;9662;53.612;9.914;2022-11-23T00:50:58;25.00;;;12.60;;
19057;SDS011;9662;53.612;9.914;2022-11-23T00:53:25;26.83;;;12.68;;
19057;SDS011;9662;53.612;9.914;2022-11-23T00:55:53;26.23;;;12.38;;
19057;SDS011;9662;53.612;9.914;2022-11-23T00:58:22;21.50;;;11.98;;
19057;SDS011;9662;53.612;9.914;2022-11-23T01:00:49;25.00;;;11.50;;
19057;SDS011;9662;53.612;9.914;2022-11-23T01:03:16;22.52;;;11.70;;
19057;SDS011;9662;53.612;9.914;2022-11-23T01:05:43;25.27;;;12.57;;
19057;SDS011;9662;53.612;9.914;2022-11-23T01:08:10;27.25;;;12.10;;
19057;SDS011;9662;53.612;9.914;2022-11-23T01:10:37;24.92;;;12.48;;
19057;SDS011;9662;53.612;9.914;2022-11-23T01:13:05;24.98;;;11.98;;
19057;SDS011;9662;53.612;9.914;2022-11-23T01:15:33;19.77;;;11.82;;
19057;SDS011;9662;53.612;9.914;2022-11-23T01:18:00;21.83;;;11.20;;
19057;SDS011;9662;53.612;9.914;2022-11-23T01:20:27;26.25;;;12.05;;
19057;SDS011;9662;53.612;9.914;2022-11-23T01:22:54;26.42;;;12.43;;
19057;SDS011;9662;53.612;9.914;2022-11-23T01:25:21;27.35;;;11.63;;
19057;SDS011;9662;53.612;9.914;2022-11-23T01:27:49;25.55;;;12.60;;
19057;SDS011;9662;53.612;9.914;2022-11-23T01:30:16;20.07;;;11.13;;
19057;SDS011;9662;53.612;9.914;2022-11-23T01:32:44;23.15;;;11.63;;
19057;SDS011;9662;53.612;9.914;2022-11-23T01:35:11;27.27;;;11.32;;
19057;SDS011;9662;53.612;9.914;2022-11-23T01:37:38;23.80;;;11.87;;
19057;SDS011;9662;53.612;9.914;2022-11-23T01:40:06;23.10;;;12.00;;
19057;SDS011;9662;53.612;9.914;2022-11-23T01:42:38;26.08;;;12.00;;
19057;SDS011;9662;53.612;9.914;2022-11-23T01:47:52;21.73;;;11.23;;
19057;SDS011;9662;53.612;9.914;2022-11-23T01:50:19;25.02;;;12.43;;
19057;SDS011;9662;53.612;9.914;2022-11-23T01:52:47;19.55;;;11.60;;
19057;SDS011;9662;53.612;9.914;2022-11-23T01:55:14;21.20;;;11.10;;
19057;SDS011;9662;53.612;9.914;2022-11-23T01:57:41;30.23;;;11.95;;
19057;SDS011;9662;53.612;9.914;2022-11-23T02:00:10;21.98;;;11.40;;
19057;SDS011;9662;53.612;9.914;2022-11-23T02:02:38;20.88;;;11.20;;
19057;SDS011;9662;53.612;9.914;2022-11-23T02:05:08;27.73;;;12.35;;
19057;SDS011;9662;53.612;9.914;2022-11-23T02:07:35;24.63;;;11.60;;
19057;SDS011;9662;53.612;9.914;2022-11-23T02:10:04;21.38;;;10.95;;
19057;SDS011;9662;53.612;9.914;2022-11-23T02:12:31;19.15;;;11.13;;
19057;SDS011;9662;53.612;9.914;2022-11-23T02:14:58;28.07;;;12.23;;
19057;SDS011;9662;53.612;9.914;2022-11-23T02:17:25;21.85;;;11.45;;
19057;SDS011;9662;53.612;9.914;2022-11-23T02:19:54;20.77;;;11.20;;
19057;SDS011;9662;53.612;9.914;2022-11-23T02:22:32;19.23;;;10.63;;
19057;SDS011;9662;53.612;9.914;2022-11-23T02:25:01;22.20;;;11.30;;
19057;SDS011;9662;53.612;9.914;2022-11-23T02:27:33;23.23;;;11.52;;
19057;SDS011;9662;53.612;9.914;2022-11-23T02:30:00;19.05;;;11.48;;
19057;SDS011;9662;53.612;9.914;2022-11-23T02:32:28;21.48;;;10.65;;
19057;SDS011;9662;53.612;9.914;2022-11-23T02:34:55;18.38;;;11.18;;
19057;SDS011;9662;53.612;9.914;2022-11-23T02:37:22;22.73;;;11.47;;
19057;SDS011;9662;53.612;9.914;2022-11-23T02:39:50;23.45;;;11.60;;
19057;SDS011;9662;53.612;9.914;2022-11-23T02:42:17;21.98;;;11.77;;
19057;SDS011;9662;53.612;9.914;2022-11-23T02:44:47;20.30;;;10.93;;
19057;SDS011;9662;53.612;9.914;2022-11-23T02:47:17;23.63;;;10.73;;
19057;SDS011;9662;53.612;9.914;2022-11-23T02:49:44;17.45;;;10.38;;
19057;SDS011;9662;53.612;9.914;2022-11-23T02:52:12;24.83;;;11.55;;
19057;SDS011;9662;53.612;9.914;2022-11-23T02:54:39;26.65;;;11.65;;
19057;SDS011;9662;53.612;9.914;2022-11-23T02:57:07;22.02;;;11.90;;
19057;SDS011;9662;53.612;9.914;2022-11-23T02:59:34;22.53;;;12.07;;
19057;SDS011;9662;53.612;9.914;2022-11-23T03:02:03;21.60;;;11.48;;
19057;SDS011;9662;53.612;9.914;2022-11-23T03:04:31;19.48;;;11.38;;
19057;SDS011;9662;53.612;9.914;2022-11-23T03:06:58;21.40;;;11.30;;
19057;SDS011;9662;53.612;9.914;2022-11-23T03:09:25;20.48;;;11.18;;
19057;SDS011;9662;53.612;9.914;2022-11-23T03:11:52;21.93;;;10.93;;
19057;SDS011;9662;53.612;9.914;2022-11-23T03:14:19;21.50;;;11.30;;
19057;SDS011;9662;53.612;9.914;2022-11-23T03:16:46;22.13;;;11.13;;
19057;SDS011;9662;53.612;9.914;2022-11-23T03:19:15;20.08;;;11.90;;
19057;SDS011;9662;53.612;9.914;2022-11-23T03:21:42;22.60;;;11.60;;
19057;SDS011;9662;53.612;9.914;2022-11-23T03:24:09;21.38;;;11.57;;
19057;SDS011;9662;53.612;9.914;2022-11-23T03:26:37;22.70;;;11.43;;
19057;SDS011;9662;53.612;9.914;2022-11-23T03:29:04;19.25;;;10.80;;
19057;SDS011;9662;53.612;9.914;2022-11-23T03:31:31;23.13;;;11.25;;
19057;SDS011;9662;53.612;9.914;2022-11-23T03:33:58;22.08;;;11.27;;
19057;SDS011;9662;53.612;9.914;2022-11-23T03:36:26;25.42;;;11.68;;
19057;SDS011;9662;53.612;9.914;2022-11-23T03:38:53;22.92;;;11.27;;
19057;SDS011;9662;53.612;9.914;2022-11-23T03:41:21;20.40;;;10.95;;
19057;SDS011;9662;53.612;9.914;2022-11-23T03:43:48;23.65;;;11.75;;
19057;SDS011;9662;53.612;9.914;2022-11-23T03:46:15;22.37;;;11.50;;
19057;SDS011;9662;53.612;9.914;2022-11-23T03:48:42;24.15;;;11.48;;
19057;SDS011;9662;53.612;9.914;2022-11-23T03:51:09;21.30;;;11.52;;
19057;SDS011;9662;53.612;9.914;2022-11-23T03:53:38;18.98;;;10.65;;
19057;SDS011;9662;53.612;9.914;2022-11-23T03:56:05;20.35;;;10.65;;
19057;SDS011;9662;53.612;9.914;2022-11-23T03:58:32;21.40;;;10.80;;
19057;SDS011;9662;53.612;9.914;2022-11-23T04:00:59;21.23;;;11.15;;
19057;SDS011;9662;53.612;9.914;2022-11-23T04:03:27;20.45;;;10.85;;
19057;SDS011;9662;53.612;9.914;2022-11-23T04:05:54;21.38;;;10.55;;
19057;SDS011;9662;53.612;9.914;2022-11-23T04:08:21;20.98;;;11.88;;
19057;SDS011;9662;53.612;9.914;2022-11-23T04:10:49;17.83;;;10.30;;
19057;SDS011;9662;53.612;9.914;2022-11-23T04:13:16;18.60;;;10.52;;
19057;SDS011;9662;53.612;9.914;2022-11-23T04:15:44;20.27;;;11.00;;
19057;SDS011;9662;53.612;9.914;2022-11-23T04:18:11;18.38;;;9.75;;
19057;SDS011;9662;53.612;9.914;2022-11-23T04:20:38;17.55;;;10.57;;
19057;SDS011;9662;53.612;9.914;2022-11-23T04:23:05;17.05;;;9.77;;
19057;SDS011;9662;53.612;9.914;2022-11-23T04:25:32;18.35;;;9.98;;
19057;SDS011;9662;53.612;9.914;2022-11-23T04:28:01;18.75;;;10.40;;
19057;SDS011;9662;53.612;9.914;2022-11-23T04:30:28;19.88;;;10.93;;
19057;SDS011;9662;53.612;9.914;2022-11-23T04:32:55;16.13;;;9.43;;
19057;SDS011;9662;53.612;9.914;2022-11-23T04:35:22;18.10;;;9.93;;
19057;SDS011;9662;53.612;9.914;2022-11-23T04:37:49;21.13;;;10.10;;
19057;SDS011;9662;53.612;9.914;2022-11-23T04:40:16;21.07;;;9.80;;
19057;SDS011;9662;53.612;9.914;2022-11-23T04:42:43;21.73;;;9.85;;
19057;SDS011;9662;53.612;9.914;2022-11-23T04:45:12;22.17;;;10.50;;
19057;SDS011;9662;53.612;9.914;2022-11-23T04:47:39;13.83;;;9.90;;
19057;SDS011;9662;53.612;9.914;2022-11-23T04:50:06;19.73;;;10.07;;
19057;SDS011;9662;53.612;9.914;2022-11-23T04:52:33;19.25;;;10.10;;
19057;SDS011;9662;53.612;9.914;2022-11-23T04:55:01;16.47;;;9.57;;
19057;SDS011;9662;53.612;9.914;2022-11-23T04:57:28;17.88;;;9.88;;
19057;SDS011;9662;53.612;9.914;2022-11-23T04:59:55;19.25;;;9.90;;
19057;SDS011;9662;53.612;9.914;2022-11-23T05:02:24;18.40;;;10.03;;
19057;SDS011;9662;53.612;9.914;2022-11-23T05:04:51;16.55;;;9.93;;
19057;SDS011;9662;53.612;9.914;2022-11-23T05:07:18;18.23;;;9.77;;
19057;SDS011;9662;53.612;9.914;2022-11-23T05:09:45;15.80;;;9.17;;
19057;SDS011;9662;53.612;9.914;2022-11-23T05:12:12;20.27;;;10.38;;
19057;SDS011;9662;53.612;9.914;2022-11-23T05:14:39;17.25;;;9.75;;
19057;SDS011;9662;53.612;9.914;2022-11-23T05:17:07;16.80;;;9.38;;
19057;SDS011;9662;53.612;9.914;2022-11-23T05:19:35;19.80;;;9.70;;
19057;SDS011;9662;53.612;9.914;2022-11-23T05:22:02;16.38;;;9.55;;
19057;SDS011;9662;53.612;9.914;2022-11-23T05:24:30;18.73;;;10.07;;
19057;SDS011;9662;53.612;9.914;2022-11-23T05:26:57;16.20;;;10.27;;
19057;SDS011;9662;53.612;9.914;2022-11-23T05:29:24;18.83;;;9.73;;
19057;SDS011;9662;53.612;9.914;2022-11-23T05:31:51;17.90;;;10.15;;
19057;SDS011;9662;53.612;9.914;2022-11-23T05:34:18;21.95;;;10.80;;
19057;SDS011;9662;53.612;9.914;2022-11-23T05:36:47;17.27;;;10.18;;
19057;SDS011;9662;53.612;9.914;2022-11-23T05:39:14;19.50;;;9.70;;
19057;SDS011;9662;53.612;9.914;2022-11-23T05:41:41;19.60;;;9.98;;
19057;SDS011;9662;53.612;9.914;2022-11-23T05:44:08;20.63;;;10.45;;
19057;SDS011;9662;53.612;9.914;2022-11-23T05:46:35;18.80;;;10.27;;
19057;SDS011;9662;53.612;9.914;2022-11-23T05:49:02;17.77;;;9.77;;
19057;SDS011;9662;53.612;9.914;2022-11-23T05:51:29;19.42;;;10.05;;
19057;SDS011;9662;53.612;9.914;2022-11-23T05:53:59;20.67;;;10.35;;
19057;SDS011;9662;53.612;9.914;2022-11-23T05:56:27;19.15;;;10.73;;
19057;SDS011;9662;53.612;9.914;2022-11-23T05:58:54;17.77;;;9.73;;
19057;SDS011;9662;53.612;9.914;2022-11-23T06:01:21;17.67;;;10.93;;
19057;SDS011;9662;53.612;9.914;2022-11-23T06:03:48;15.85;;;10.07;;
19057;SDS011;9662;53.612;9.914;2022-11-23T06:06:15;17.63;;;9.95;;
19057;SDS011;9662;53.612;9.914;2022-11-23T06:08:42;17.92;;;9.77;;
19057;SDS011;9662;53.612;9.914;2022-11-23T06:11:11;19.30;;;10.10;;
19057;SDS011;9662;53.612;9.914;2022-11-23T06:13:38;21.30;;;10.63;;
19057;SDS011;9662;53.612;9.914;2022-11-23T06:16:05;17.50;;;10.30;;
19057;SDS011;9662;53.612;9.914;2022-11-23T06:18:33;21.55;;;9.80;;
19057;SDS011;9662;53.612;9.914;2022-11-23T06:21:00;20.30;;;9.00;;
19057;SDS011;9662;53.612;9.914;2022-11-23T06:23:27;22.77;;;10.00;;
19057;SDS011;9662;53.612;9.914;2022-11-23T06:25:57;16.13;;;9.37;;
19057;SDS011;9662;53.612;9.914;2022-11-23T06:28:26;17.90;;;9.43;;
19057;SDS011;9662;53.612;9.914;2022-11-23T06:30:54;15.73;;;9.70;;
19057;SDS011;9662;53.612;9.914;2022-11-23T06:33:21;15.93;;;9.07;;
19057;SDS011;9662;53.612;9.914;2022-11-23T06:35:51;16.17;;;9.73;;
19057;SDS011;9662;53.612;9.914;2022-11-23T06:38:18;18.98;;;9.35;;
19057;SDS011;9662;53.612;9.914;2022-11-23T06:40:46;18.25;;;10.02;;
19057;SDS011;9662;53.612;9.914;2022-11-23T06:43:13;15.90;;;9.30;;
19057;SDS011;9662;53.612;9.914;2022-11-23T06:45:41;13.60;;;9.23;;
19057;SDS011;9662;53.612;9.914;2022-11-23T06:48:09;13.57;;;9.50;;
19057;SDS011;9662;53.612;9.914;2022-11-23T06:50:36;14.13;;;8.40;;
19057;SDS011;9662;53.612;9.914;2022-11-23T06:53:03;15.38;;;9.13;;
19057;SDS011;9662;53.612;9.914;2022-11-23T06:55:30;16.48;;;8.75;;
19057;SDS011;9662;53.612;9.914;2022-11-23T06:57:57;16.40;;;8.70;;
19057;SDS011;9662;53.612;9.914;2022-11-23T07:00:24;17.83;;;9.83;;
19057;SDS011;9662;53.612;9.914;2022-11-23T07:02:53;16.55;;;9.15;;
19057;SDS011;9662;53.612;9.914;2022-11-23T07:05:21;20.05;;;9.63;;
19057;SDS011;9662;53.612;9.914;2022-11-23T07:07:48;18.33;;;8.93;;
19057;SDS011;9662;53.612;9.914;2022-11-23T07:10:16;18.00;;;9.35;;
19057;SDS011;9662;53.612;9.914;2022-11-23T07:12:43;19.40;;;9.52;;
19057;SDS011;9662;53.612;9.914;2022-11-23T07:15:10;13.35;;;8.50;;
19057;SDS011;9662;53.612;9.914;2022-11-23T07:17:38;17.08;;;9.32;;
19057;SDS011;9662;53.612;9.914;2022-11-23T07:20:07;19.20;;;9.73;;
19057;SDS011;9662;53.612;9.914;2022-11-23T07:22:35;12.73;;;8.20;;
19057;SDS011;9662;53.612;9.914;2022-11-23T07:25:02;11.95;;;8.15;;
19057;SDS011;9662;53.612;9.914;2022-11-23T07:27:30;20.60;;;8.95;;
19057;SDS011;9662;53.612;9.914;2022-11-23T07:29:57;17.33;;;8.48;;
19057;SDS011;9662;53.612;9.914;2022-11-23T07:32:24;18.05;;;8.98;;
19057;SDS011;9662;53.612;9.914;2022-11-23T07:34:51;17.40;;;9.00;;
19057;SDS011;9662;53.612;9.914;2022-11-23T07:37:20;13.30;;;8.57;;
19057;SDS011;9662;53.612;9.914;2022-11-23T07:39:47;21.40;;;8.05;;
19057;SDS011;9662;53.612;9.914;2022-11-23T07:42:16;19.10;;;9.43;;
19057;SDS011;9662;53.612;9.914;2022-11-23T07:44:44;11.15;;;8.40;;
19057;SDS011;9662;53.612;9.914;2022-11-23T07:47:11;17.60;;;9.20;;
19057;SDS011;9662;53.612;9.914;2022-11-23T07:49:38;12.60;;;8.38;;
19057;SDS011;9662;53.612;9.914;2022-11-23T07:52:05;15.65;;;7.97;;
19057;SDS011;9662;53.612;9.914;2022-11-23T07:54:33;11.85;;;8.43;;
19057;SDS011;9662;53.612;9.914;2022-11-23T07:57:01;16.23;;;8.45;;
19057;SDS011;9662;53.612;9.914;2022-11-23T07:59:28;13.55;;;8.23;;
19057;SDS011;9662;53.612;9.914;2022-11-23T08:01:55;17.02;;;8.90;;
19057;SDS011;9662;53.612;9.914;2022-11-23T08:04:22;12.82;;;8.20;;
19057;SDS011;9662;53.612;9.914;2022-11-23T08:06:51;11.07;;;8.13;;
19057;SDS011;9662;53.612;9.914;2022-11-23T08:09:19;16.48;;;8.20;;
19057;SDS011;9662;53.612;9.914;2022-11-23T08:11:47;16.13;;;7.93;;
19057;SDS011;9662;53.612;9.914;2022-11-23T08:14:14;14.65;;;8.10;;
19057;SDS011;9662;53.612;9.914;2022-11-23T08:16:42;21.10;;;7.97;;
19057;SDS011;9662;53.612;9.914;2022-11-23T08:19:09;12.57;;;7.57;;
19057;SDS011;9662;53.612;9.914;2022-11-23T08:21:36;11.25;;;7.22;;
19057;SDS011;9662;53.612;9.914;2022-11-23T08:24:03;10.93;;;7.75;;
19057;SDS011;9662;53.612;9.914;2022-11-23T08:26:30;12.63;;;7.32;;
19057;SDS011;9662;53.612;9.914;2022-11-23T08:28:59;10.27;;;7.22;;
19057;SDS011;9662;53.612;9.914;2022-11-23T08:31:26;11.48;;;7.57;;
19057;SDS011;9662;53.612;9.914;2022-11-23T08:33:53;9.60;;;7.30;;
19057;SDS011;9662;53.612;9.914;2022-11-23T08:36:20;9.95;;;7.18;;
19057;SDS011;9662;53.612;9.914;2022-11-23T08:38:47;9.57;;;6.97;;
19057;SDS011;9662;53.612;9.914;2022-11-23T08:41:16;12.38;;;7.68;;
19057;SDS011;9662;53.612;9.914;2022-11-23T08:43:45;13.93;;;7.63;;
19057;SDS011;9662;53.612;9.914;2022-11-23T08:46:13;15.45;;;7.32;;
19057;SDS011;9662;53.612;9.914;2022-11-23T08:48:40;7.90;;;7.03;;
19057;SDS011;9662;53.612;9.914;2022-11-23T08:51:08;7.05;;;6.45;;
19057;SDS011;9662;53.612;9.914;2022-11-23T08:53:35;7.43;;;6.40;;
19057;SDS011;9662;53.612;9.914;2022-11-23T08:56:03;12.25;;;7.13;;
19057;SDS011;9662;53.612;9.914;2022-11-23T08:58:30;13.55;;;7.15;;
19057;SDS011;9662;53.612;9.914;2022-11-23T09:00:57;7.18;;;6.45;;
19057;SDS011;9662;53.612;9.914;2022-11-23T09:03:26;10.90;;;6.75;;
19057;SDS011;9662;53.612;9.914;2022-11-23T09:05:57;7.53;;;6.55;;
19057;SDS011;9662;53.612;9.914;2022-11-23T09:08:24;8.60;;;6.95;;
19057;SDS011;9662;53.612;9.914;2022-11-23T09:10:51;10.73;;;7.15;;
19057;SDS011;9662;53.612;9.914;2022-11-23T09:13:19;12.68;;;6.68;;
19057;SDS011;9662;53.612;9.914;2022-11-23T09:15:46;11.07;;;6.85;;
19057;SDS011;9662;53.612;9.914;2022-11-23T09:18:13;13.90;;;6.85;;
19057;SDS011;9662;53.612;9.914;2022-11-23T09:20:41;10.05;;;6.20;;
19057;SDS011;9662;53.612;9.914;2022-11-23T09:23:08;6.72;;;6.15;;
19057;SDS011;9662;53.612;9.914;2022-11-23T09:25:36;7.47;;;6.75;;
19057;SDS011;9662;53.612;9.914;2022-11-23T09:28:03;13.85;;;6.00;;
19057;SDS011;9662;53.612;9.914;2022-11-23T09:30:30;8.05;;;6.40;;
19057;SDS011;9662;53.612;9.914;2022-11-23T09:32:57;8.83;;;5.83;;
19057;SDS011;9662;53.612;9.914;2022-11-23T09:35:24;7.72;;;5.43;;
19057;SDS011;9662;53.612;9.914;2022-11-23T09:37:56;8.38;;;5.38;;
19057;SDS011;9662;53.612;9.914;2022-11-23T09:40:24;8.23;;;5.55;;
19057;SDS011;9662;53.612;9.914;2022-11-23T09:42:54;5.72;;;4.75;;
19057;SDS011;9662;53.612;9.914;2022-11-23T09:45:26;10.27;;;5.15;;
19057;SDS011;9662;53.612;9.914;2022-11-23T09:47:58;5.18;;;4.75;;
19057;SDS011;9662;53.612;9.914;2022-11-23T09:50:32;10.13;;;5.30;;
19057;SDS011;9662;53.612;9.914;2022-11-23T09:53:03;7.97;;;5.75;;
19057;SDS011;9662;53.612;9.914;2022-11-23T09:55:33;6.60;;;5.18;;
19057;SDS011;9662;53.612;9.914;2022-11-23T09:58:03;7.93;;;4.87;;
19057;SDS011;9662;53.612;9.914;2022-11-23T10:00:34;8.10;;;5.20;;
19057;SDS011;9662;53.612;9.914;2022-11-23T10:03:03;5.05;;;4.53;;
19057;SDS011;9662;53.612;9.914;2022-11-23T10:05:31;4.60;;;4.28;;
19057;SDS011;9662;53.612;9.914;2022-11-23T10:08:03;5.03;;;4.55;;
19057;SDS011;9662;53.612;9.914;2022-11-23T10:10:37;5.47;;;4.50;;
19057;SDS011;9662;53.612;9.914;2022-11-23T10:13:10;6.55;;;4.53;;
19057;SDS011;9662;53.612;9.914;2022-11-23T10:15:44;5.88;;;4.50;;
19057;SDS011;9662;53.612;9.914;2022-11-23T10:18:18;9.60;;;4.97;;
19057;SDS011;9662;53.612;9.914;2022-11-23T10:20:51;5.32;;;4.65;;
19057;SDS011;9662;53.612;9.914;2022-11-23T10:23:26;6.60;;;5.18;;
19057;SDS011;9662;53.612;9.914;2022-11-23T10:25:57;5.90;;;4.50;;
19057;SDS011;9662;53.612;9.914;2022-11-23T10:28:24;6.13;;;4.90;;
19057;SDS011;9662;53.612;9.914;2022-11-23T10:30:56;5.03;;;4.72;;
19057;SDS011;9662;53.612;9.914;2022-11-23T10:33:27;6.75;;;4.18;;
19057;SDS011;9662;53.612;9.914;2022-11-23T10:35:56;4.75;;;4.35;;
19057;SDS011;9662;53.612;9.914;2022-11-23T10:38:24;4.70;;;4.22;;
19057;SDS011;9662;53.612;9.914;2022-11-23T10:40:56;10.20;;;4.47;;
19057;SDS011;9662;53.612;9.914;2022-11-23T10:43:24;6.30;;;4.23;;
19057;SDS011;9662;53.612;9.914;2022-11-23T10:45:53;4.57;;;4.15;;
19057;SDS011;9662;53.612;9.914;2022-11-23T10:48:40;5.57;;;4.80;;
19057;SDS011;9662;53.612;9.914;2022-11-23T10:51:15;5.28;;;4.80;;
19057;SDS011;9662;53.612;9.914;2022-11-23T10:53:42;8.80;;;4.88;;
19057;SDS011;9662;53.612;9.914;2022-11-23T10:56:12;8.45;;;4.95;;
19057;SDS011;9662;53.612;9.914;2022-11-23T10:58:41;4.95;;;4.55;;
19057;SDS011;9662;53.612;9.914;2022-11-23T11:01:10;6.40;;;4.88;;
19057;SDS011;9662;53.612;9.914;2022-11-23T11:03:39;8.60;;;5.07;;
19057;SDS011;9662;53.612;9.914;2022-11-23T11:06:07;5.43;;;4.72;;
19057;SDS011;9662;53.612;9.914;2022-11-23T11:08:35;5.43;;;4.93;;
19057;SDS011;9662;53.612;9.914;2022-11-23T11:11:03;6.07;;;4.90;;
19057;SDS011;9662;53.612;9.914;2022-11-23T11:13:39;6.40;;;4.93;;
19057;SDS011;9662;53.612;9.914;2022-11-23T11:16:17;7.00;;;4.80;;
19057;SDS011;9662;53.612;9.914;2022-11-23T11:18:45;8.95;;;4.63;;
19057;SDS011;9662;53.612;9.914;2022-11-23T11:21:17;5.80;;;4.90;;
19057;SDS011;9662;53.612;9.914;2022-11-23T11:23:46;7.93;;;5.17;;
19057;SDS011;9662;53.612;9.914;2022-11-23T11:26:18;5.80;;;5.30;;
19057;SDS011;9662;53.612;9.914;2022-11-23T11:28:48;5.00;;;4.63;;
19057;SDS011;9662;53.612;9.914;2022-11-23T11:31:27;9.13;;;4.63;;
19057;SDS011;9662;53.612;9.914;2022-11-23T11:33:57;5.30;;;4.38;;
19057;SDS011;9662;53.612;9.914;2022-11-23T11:36:29;13.60;;;4.75;;
19057;SDS011;9662;53.612;9.914;2022-11-23T11:38:57;6.40;;;4.43;;
19057;SDS011;9662;53.612;9.914;2022-11-23T11:41:27;4.82;;;4.32;;
19057;SDS011;9662;53.612;9.914;2022-11-23T11:43:56;9.90;;;4.97;;
19057;SDS011;9662;53.612;9.914;2022-11-23T11:46:36;7.88;;;4.47;;
19057;SDS011;9662;53.612;9.914;2022-11-23T11:49:04;5.03;;;4.18;;
19057;SDS011;9662;53.612;9.914;2022-11-23T11:51:33;6.38;;;4.45;;
19057;SDS011;9662;53.612;9.914;2022-11-23T11:54:04;5.90;;;4.27;;
19057;SDS011;9662;53.612;9.914;2022-11-23T11:56:33;8.13;;;4.43;;
19057;SDS011;9662;53.612;9.914;2022-11-23T11:59:04;5.03;;;4.63;;
19057;SDS011;9662;53.612;9.914;2022-11-23T12:01:37;8.03;;;4.47;;
19057;SDS011;9662;53.612;9.914;2022-11-23T12:04:06;6.68;;;4.63;;
19057;SDS011;9662;53.612;9.914;2022-11-23T12:06:34;6.70;;;4.63;;
19057;SDS011;9662;53.612;9.914;2022-11-23T12:09:06;5.93;;;4.63;;
19057;SDS011;9662;53.612;9.914;2022-11-23T12:11:35;5.40;;;4.90;;
19057;SDS011;9662;53.612;9.914;2022-11-23T12:14:03;10.30;;;4.90;;
19057;SDS011;9662;53.612;9.914;2022-11-23T12:16:33;8.65;;;4.18;;
19057;SDS011;9662;53.612;9.914;2022-11-23T12:19:06;5.15;;;4.35;;
19057;SDS011;9662;53.612;9.914;2022-11-23T12:21:39;7.67;;;4.07;;
19057;SDS011;9662;53.612;9.914;2022-11-23T12:24:12;7.75;;;4.05;;
19057;SDS011;9662;53.612;9.914;2022-11-23T12:26:43;8.30;;;4.43;;
19057;SDS011;9662;53.612;9.914;2022-11-23T12:29:25;6.07;;;3.87;;
19057;SDS011;9662;53.612;9.914;2022-11-23T12:31:58;4.20;;;3.90;;
19057;SDS011;9662;53.612;9.914;2022-11-23T12:34:42;4.03;;;3.70;;
19057;SDS011;9662;53.612;9.914;2022-11-23T12:40:02;5.35;;;4.80;;
19057;SDS011;9662;53.612;9.914;2022-11-23T12:42:34;12.55;;;4.25;;
19057;SDS011;9662;53.612;9.914;2022-11-23T12:45:14;5.03;;;3.90;;
19057;SDS011;9662;53.612;9.914;2022-11-23T12:47:45;11.13;;;4.30;;
19057;SDS011;9662;53.612;9.914;2022-11-23T12:50:17;5.10;;;4.43;;
19057;SDS011;9662;53.612;9.914;2022-11-23T12:52:52;7.10;;;4.05;;
19057;SDS011;9662;53.612;9.914;2022-11-23T12:55:22;4.07;;;3.85;;
19057;SDS011;9662;53.612;9.914;2022-11-23T12:57:51;7.03;;;3.70;;
19057;SDS011;9662;53.612;9.914;2022-11-23T13:00:22;5.78;;;4.15;;
19057;SDS011;9662;53.612;9.914;2022-11-23T13:05:46;4.85;;;3.50;;
19057;SDS011;9662;53.612;9.914;2022-11-23T13:11:07;4.30;;;3.47;;
19057;SDS011;9662;53.612;9.914;2022-11-23T13:16:31;4.65;;;3.80;;
19057;SDS011;9662;53.612;9.914;2022-11-23T13:19:08;5.47;;;3.63;;
19057;SDS011;9662;53.612;9.914;2022-11-23T13:21:37;3.83;;;3.53;;
19057;SDS011;9662;53.612;9.914;2022-11-23T13:26:47;3.90;;;3.60;;
19057;SDS011;9662;53.612;9.914;2022-11-23T13:29:52;5.43;;;3.47;;
19057;SDS011;9662;53.612;9.914;2022-11-23T13:32:44;6.55;;;3.70;;
19057;SDS011;9662;53.612;9.914;2022-11-23T13:40:52;4.72;;;2.75;;
19057;SDS011;9662;53.612;9.914;2022-11-23T13:43:20;4.30;;;2.88;;
19057;SDS011;9662;53.612;9.914;2022-11-23T13:48:37;6.93;;;3.15;;
19057;SDS011;9662;53.612;9.914;2022-11-23T13:51:07;3.92;;;2.80;;
19057;SDS011;9662;53.612;9.914;2022-11-23T13:53:35;4.50;;;2.85;;
19057;SDS011;9662;53.612;9.914;2022-11-23T13:56:17;3.38;;;3.08;;
19057;SDS011;9662;53.612;9.914;2022-11-23T13:58:50;4.10;;;3.00;;
19057;SDS011;9662;53.612;9.914;2022-11-23T14:04:20;4.40;;;2.80;;
19057;SDS011;9662;53.612;9.914;2022-11-23T14:06:47;4.95;;;2.72;;
19057;SDS011;9662;53.612;9.914;2022-11-23T14:09:17;3.58;;;2.97;;
19057;SDS011;9662;53.612;9.914;2022-11-23T14:11:49;3.08;;;2.75;;
19057;SDS011;9662;53.612;9.914;2022-11-23T14:14:19;4.53;;;2.67;;
19057;SDS011;9662;53.612;9.914;2022-11-23T14:16:54;8.30;;;3.03;;
19057;SDS011;9662;53.612;9.914;2022-11-23T14:19:29;2.70;;;2.53;;
19057;SDS011;9662;53.612;9.914;2022-11-23T14:22:00;5.93;;;2.60;;
19057;SDS011;9662;53.612;9.914;2022-11-23T14:27:19;8.23;;;3.38;;
19057;SDS011;9662;53.612;9.914;2022-11-23T14:30:02;2.97;;;2.83;;
19057;SDS011;9662;53.612;9.914;2022-11-23T14:32:33;3.05;;;2.90;;
19057;SDS011;9662;53.612;9.914;2022-11-23T14:35:11;3.17;;;2.88;;
19057;SDS011;9662;53.612;9.914;2022-11-23T14:37:42;2.95;;;2.65;;
19057;SDS011;9662;53.612;9.914;2022-11-23T14:40:15;4.60;;;2.88;;
19057;SDS011;9662;53.612;9.914;2022-11-23T14:42:44;5.20;;;3.08;;
19057;SDS011;9662;53.612;9.914;2022-11-23T14:45:16;8.82;;;5.28;;
19057;SDS011;9662;53.612;9.914;2022-11-23T14:47:45;9.20;;;4.28;;
19057;SDS011;9662;53.612;9.914;2022-11-23T14:50:20;7.30;;;3.50;;
19057;SDS011;9662;53.612;9.914;2022-11-23T14:52:47;4.35;;;3.92;;
19057;SDS011;9662;53.612;9.914;2022-11-23T14:55:17;5.68;;;2.95;;
19057;SDS011;9662;53.612;9.914;2022-11-23T14:57:45;3.50;;;3.30;;
19057;SDS011;9662;53.612;9.914;2022-11-23T15:00:22;3.63;;;3.33;;
19057;SDS011;9662;53.612;9.914;2022-11-23T15:02:50;4.38;;;3.30;;
19057;SDS011;9662;53.612;9.914;2022-11-23T15:05:18;3.43;;;3.13;;
19057;SDS011;9662;53.612;9.914;2022-11-23T15:07:49;3.13;;;2.92;;
19057;SDS011;9662;53.612;9.914;2022-11-23T15:10:25;4.10;;;3.10;;
19057;SDS011;9662;53.612;9.914;2022-11-23T15:12:54;5.93;;;3.17;;
19057;SDS011;9662;53.612;9.914;2022-11-23T15:15:22;5.45;;;4.95;;
19057;SDS011;9662;53.612;9.914;2022-11-23T15:17:49;9.73;;;5.90;;
19057;SDS011;9662;53.612;9.914;2022-11-23T15:20:17;7.47;;;4.50;;
19057;SDS011;9662;53.612;9.914;2022-11-23T15:22:44;7.13;;;4.20;;
19057;SDS011;9662;53.612;9.914;2022-11-23T15:25:14;6.88;;;4.03;;
19057;SDS011;9662;53.612;9.914;2022-11-23T15:27:43;4.20;;;3.83;;
19057;SDS011;9662;53.612;9.914;2022-11-23T15:30:15;9.20;;;3.80;;